createdAt,value
2023-08-07T00:01:23.751Z,11.80
2023-08-07T00:03:52.253Z,11.79
2023-08-07T00:06:20.531Z,11.78
2023-08-07T00:08:48.995Z,11.74
2023-08-07T00:11:17.348Z,11.72
2023-08-07T00:13:45.753Z,11.71
2023-08-07T00:16:14.320Z,11.71
2023-08-07T00:18:42.621Z,11.70
2023-08-07T00:21:11.096Z,11.69
2023-08-07T00:23:39.445Z,11.68
2023-08-07T00:26:07.937Z,11.70
2023-08-07T00:28:36.266Z,11.68
2023-08-07T00:31:04.722Z,11.66
2023-08-07T00:33:33.120Z,11.68
2023-08-07T00:36:01.461Z,11.67
2023-08-07T00:38:29.879Z,11.66
2023-08-07T00:40:58.282Z,11.69
2023-08-07T00:43:26.820Z,11.68
2023-08-07T00:45:55.516Z,11.66
2023-08-07T00:48:23.930Z,11.64
2023-08-07T00:50:54.079Z,11.65
2023-08-07T00:53:23.837Z,11.65
2023-08-07T00:55:52.456Z,11.61
2023-08-07T00:58:20.344Z,11.62
2023-08-07T01:00:50.905Z,11.64
2023-08-07T01:03:20.765Z,11.63
2023-08-07T01:05:50.624Z,11.61
2023-08-07T01:08:22.063Z,11.61
2023-08-07T01:11:51.657Z,11.69
2023-08-07T01:14:47.740Z,11.69
2023-08-07T01:17:24.689Z,11.70
2023-08-07T01:19:56.704Z,11.73
2023-08-07T01:22:26.963Z,11.79
2023-08-07T01:24:57.323Z,11.77
2023-08-07T01:28:12.281Z,11.79
2023-08-07T01:30:53.742Z,11.85
2023-08-07T01:33:41.117Z,11.82
2023-08-07T01:36:15.264Z,11.81
2023-08-07T01:38:54.156Z,11.83
2023-08-07T01:41:23.612Z,11.85
2023-08-07T01:43:53.837Z,11.84
2023-08-07T01:46:22.379Z,11.85
2023-08-07T01:48:50.207Z,11.84
2023-08-07T01:51:18.572Z,11.86
2023-08-07T01:53:48.966Z,11.85
2023-08-07T01:56:19.167Z,11.88
2023-08-07T01:58:49.279Z,11.90
2023-08-07T02:01:19.388Z,11.89
2023-08-07T02:03:49.660Z,11.86
2023-08-07T02:06:19.930Z,11.84
2023-08-07T02:08:50.407Z,11.89
2023-08-07T02:11:20.504Z,11.87
2023-08-07T02:13:50.608Z,11.90
2023-08-07T02:16:20.787Z,11.90
2023-08-07T02:18:50.936Z,11.88
2023-08-07T02:21:21.109Z,11.91
2023-08-07T02:23:51.427Z,11.94
2023-08-07T02:26:21.573Z,11.92
2023-08-07T02:28:54.592Z,11.91
2023-08-07T02:31:24.702Z,11.90
2023-08-07T02:33:54.860Z,11.97
2023-08-07T02:36:24.980Z,11.99
2023-08-07T02:38:55.113Z,11.97
2023-08-07T02:41:25.223Z,12.00
2023-08-07T02:43:55.409Z,11.97
2023-08-07T02:46:25.786Z,11.96
2023-08-07T02:48:55.935Z,11.98
2023-08-07T02:51:26.088Z,12.00
2023-08-07T02:53:56.202Z,12.00
2023-08-07T02:56:26.343Z,11.98
2023-08-07T02:58:59.361Z,11.96
2023-08-07T03:01:30.851Z,11.98
2023-08-07T03:04:01.018Z,12.03
2023-08-07T03:06:29.548Z,12.09
2023-08-07T03:08:57.757Z,12.11
2023-08-07T03:11:26.208Z,12.15
2023-08-07T03:13:54.608Z,12.16
2023-08-07T03:16:23.094Z,12.16
2023-08-07T03:18:51.479Z,12.19
2023-08-07T03:21:19.766Z,12.16
2023-08-07T03:23:48.243Z,12.16
2023-08-07T03:26:19.453Z,12.14
2023-08-07T03:28:49.937Z,12.13
2023-08-07T03:31:19.556Z,12.16
2023-08-07T03:33:47.904Z,12.16
2023-08-07T03:36:16.299Z,12.12
2023-08-07T03:38:44.712Z,12.14
2023-08-07T03:41:13.242Z,12.15
2023-08-07T03:43:41.500Z,12.21
2023-08-07T03:46:09.962Z,12.24
2023-08-07T03:48:40.027Z,12.26
2023-08-07T03:51:10.424Z,12.26
2023-08-07T03:53:40.663Z,12.29
2023-08-07T03:56:10.456Z,12.36
2023-08-07T03:58:41.321Z,12.39
2023-08-07T04:01:11.775Z,12.38
2023-08-07T04:03:40.326Z,12.38
2023-08-07T04:06:09.264Z,12.40
2023-08-07T04:08:37.046Z,12.42
2023-08-07T04:11:06.757Z,12.44
2023-08-07T04:13:36.931Z,12.45
2023-08-07T04:16:06.161Z,12.49
2023-08-07T04:18:35.135Z,12.49
2023-08-07T04:21:05.399Z,12.48
2023-08-07T04:23:35.253Z,12.52
2023-08-07T04:26:05.362Z,12.56
2023-08-07T04:28:35.092Z,12.58
2023-08-07T04:31:04.904Z,12.59
2023-08-07T04:33:34.705Z,12.57
2023-08-07T04:36:05.167Z,12.56
2023-08-07T04:38:35.186Z,12.57
2023-08-07T04:41:05.031Z,12.56
2023-08-07T04:43:34.959Z,12.57
2023-08-07T04:46:04.727Z,12.59
2023-08-07T04:48:34.721Z,12.67
2023-08-07T04:51:04.783Z,12.63
2023-08-07T04:53:34.747Z,12.63
2023-08-07T04:56:04.934Z,12.63
2023-08-07T04:58:34.736Z,12.64
2023-08-07T05:01:03.133Z,12.67
2023-08-07T05:03:32.633Z,12.65
2023-08-07T05:06:02.078Z,12.64
2023-08-07T05:08:31.415Z,12.66
2023-08-07T05:10:59.884Z,12.68
2023-08-07T05:13:28.236Z,12.76
2023-08-07T05:15:56.626Z,12.80
2023-08-07T05:18:25.124Z,12.90
2023-08-07T05:20:53.516Z,12.94
2023-08-07T05:23:21.917Z,12.97
2023-08-07T05:25:50.442Z,12.96
2023-08-07T05:28:18.843Z,12.90
2023-08-07T05:30:47.280Z,12.80
2023-08-07T05:33:16.862Z,12.78
2023-08-07T05:35:44.276Z,12.73
2023-08-07T05:38:12.620Z,12.68
2023-08-07T05:40:41.973Z,12.70
2023-08-07T05:43:10.056Z,12.72
2023-08-07T05:45:38.406Z,12.77
2023-08-07T05:48:08.023Z,12.85
2023-08-07T05:50:38.374Z,12.87
2023-08-07T05:53:08.500Z,12.88
2023-08-07T05:55:44.568Z,12.86
2023-08-07T05:58:14.718Z,12.87
2023-08-07T06:00:44.791Z,12.89
2023-08-07T06:03:14.654Z,12.97
2023-08-07T06:05:44.639Z,13.03
2023-08-07T06:08:14.453Z,13.12
2023-08-07T06:10:44.249Z,13.27
2023-08-07T06:13:19.818Z,13.40
2023-08-07T06:15:56.929Z,13.55
2023-08-07T06:18:26.855Z,13.70
2023-08-07T06:20:57.789Z,13.80
2023-08-07T06:23:27.850Z,13.82
2023-08-07T06:25:59.906Z,13.97
2023-08-07T06:28:30.167Z,14.22
2023-08-07T06:31:09.356Z,14.42
2023-08-07T06:33:40.326Z,14.49
2023-08-07T06:36:10.655Z,14.48
2023-08-07T06:38:40.393Z,14.44
2023-08-07T06:41:10.422Z,14.50
2023-08-07T06:43:40.342Z,14.55
2023-08-07T06:46:10.192Z,14.64
2023-08-07T06:48:40.061Z,14.69
2023-08-07T06:51:09.816Z,14.89
2023-08-07T06:53:39.660Z,15.03
2023-08-07T06:56:09.489Z,15.10
2023-08-07T06:58:39.317Z,14.99
2023-08-07T07:01:09.431Z,15.07
2023-08-07T07:03:39.265Z,15.03
2023-08-07T07:06:09.700Z,15.10
2023-08-07T07:08:39.765Z,15.26
2023-08-07T07:11:09.723Z,15.20
2023-08-07T07:13:40.215Z,15.26
2023-08-07T07:16:09.919Z,15.41
2023-08-07T07:18:40.707Z,15.51
2023-08-07T07:21:08.316Z,15.59
2023-08-07T07:23:36.742Z,15.66
2023-08-07T07:26:05.190Z,15.77
2023-08-07T07:28:33.637Z,15.75
2023-08-07T07:31:01.990Z,15.79
2023-08-07T07:33:30.442Z,15.73
2023-08-07T07:35:58.894Z,15.79
2023-08-07T07:38:27.698Z,15.71
2023-08-07T07:40:57.955Z,15.74
2023-08-07T07:43:27.061Z,15.74
2023-08-07T07:45:55.538Z,15.66
2023-08-07T07:48:23.827Z,15.52
2023-08-07T07:50:54.208Z,15.48
2023-08-07T07:53:25.870Z,15.52
2023-08-07T07:55:56.761Z,15.54
2023-08-07T07:58:26.649Z,15.54
2023-08-07T08:00:56.209Z,15.56
2023-08-07T08:03:26.329Z,15.64
2023-08-07T08:05:56.316Z,15.67
2023-08-07T08:08:28.938Z,15.71
2023-08-07T08:10:57.527Z,15.75
2023-08-07T08:13:26.873Z,15.80
2023-08-07T08:15:54.370Z,15.93
2023-08-07T08:18:22.808Z,15.99
2023-08-07T08:20:51.051Z,16.00
2023-08-07T08:23:19.544Z,15.96
2023-08-07T08:25:49.007Z,15.74
2023-08-07T08:28:16.923Z,15.62
2023-08-07T08:30:44.810Z,15.57
2023-08-07T08:33:15.824Z,15.57
2023-08-07T08:35:46.390Z,15.87
2023-08-07T08:38:20.689Z,16.08
2023-08-07T08:40:53.963Z,16.20
2023-08-07T08:43:28.838Z,16.13
2023-08-07T08:45:57.622Z,15.84
2023-08-07T08:48:29.535Z,15.52
2023-08-07T08:50:57.767Z,15.18
2023-08-07T08:53:28.756Z,14.99
2023-08-07T08:55:56.359Z,14.85
2023-08-07T08:58:25.429Z,14.94
2023-08-07T09:00:54.336Z,15.22
2023-08-07T09:03:26.811Z,15.66
2023-08-07T09:06:03.027Z,16.02
2023-08-07T09:08:35.907Z,16.14
2023-08-07T09:11:05.986Z,16.01
2023-08-07T09:13:38.173Z,15.85
2023-08-07T09:16:11.591Z,15.85
2023-08-07T09:18:42.524Z,15.80
2023-08-07T09:21:13.355Z,15.59
2023-08-07T09:23:43.008Z,15.30
2023-08-07T09:26:13.991Z,15.23
2023-08-07T09:28:44.684Z,15.42
2023-08-07T09:31:18.991Z,15.60
2023-08-07T09:33:51.285Z,15.77
2023-08-07T09:36:21.452Z,15.97
2023-08-07T09:38:52.157Z,16.13
2023-08-07T09:41:23.749Z,16.22
2023-08-07T09:43:54.037Z,16.36
2023-08-07T09:46:27.113Z,16.51
2023-08-07T09:49:00.591Z,16.53
2023-08-07T09:51:47.866Z,16.64
2023-08-07T09:54:16.545Z,16.58
2023-08-07T09:56:49.031Z,16.59
2023-08-07T09:59:18.454Z,16.74
2023-08-07T10:01:49.007Z,16.81
2023-08-07T10:04:19.498Z,16.87
2023-08-07T10:06:50.512Z,16.93
2023-08-07T10:09:17.963Z,16.80
2023-08-07T10:11:47.560Z,16.86
2023-08-07T10:14:19.687Z,16.84
2023-08-07T10:16:52.611Z,16.81
2023-08-07T10:19:22.777Z,16.91
2023-08-07T10:21:55.692Z,17.08
2023-08-07T10:24:28.126Z,17.22
2023-08-07T10:27:01.435Z,17.06
2023-08-07T10:29:36.259Z,17.03
2023-08-07T10:32:11.638Z,16.94
2023-08-07T10:34:42.051Z,16.94
2023-08-07T10:37:46.458Z,16.92
2023-08-07T10:40:16.967Z,16.94
2023-08-07T10:42:56.103Z,16.96
2023-08-07T10:45:28.015Z,16.96
2023-08-07T10:48:12.882Z,17.03
2023-08-07T10:50:56.144Z,17.09
2023-08-07T10:53:56.827Z,17.00
2023-08-07T10:56:38.872Z,17.08
2023-08-07T10:59:14.257Z,17.00
2023-08-07T11:01:45.271Z,16.94
2023-08-07T11:04:16.608Z,16.86
2023-08-07T11:06:50.452Z,16.69
2023-08-07T11:09:20.648Z,16.67
2023-08-07T11:11:51.119Z,16.77
2023-08-07T11:14:21.548Z,16.85
2023-08-07T11:16:51.668Z,16.94
2023-08-07T11:19:21.891Z,16.92
2023-08-07T11:21:52.010Z,17.06
2023-08-07T11:24:22.847Z,17.14
2023-08-07T11:26:50.095Z,17.22
2023-08-07T11:29:20.555Z,17.26
2023-08-07T11:31:52.960Z,17.31
2023-08-07T11:34:23.697Z,17.27
2023-08-07T11:36:56.652Z,17.12
2023-08-07T11:39:27.597Z,16.94
2023-08-07T11:41:57.974Z,16.68
2023-08-07T11:44:30.354Z,16.21
2023-08-07T11:47:01.449Z,16.16
2023-08-07T11:49:31.631Z,16.39
2023-08-07T11:52:02.072Z,16.68
2023-08-07T11:54:30.292Z,16.95
2023-08-07T11:56:58.910Z,17.15
2023-08-07T11:59:27.752Z,17.33
2023-08-07T12:01:55.566Z,17.30
2023-08-07T12:04:23.886Z,17.24
2023-08-07T12:06:58.651Z,16.99
2023-08-07T12:09:29.896Z,16.89
2023-08-07T12:12:00.190Z,16.74
2023-08-07T12:14:33.368Z,16.65
2023-08-07T12:17:05.252Z,16.62
2023-08-07T12:19:44.514Z,16.86
2023-08-07T12:22:14.836Z,17.12
2023-08-07T12:24:45.054Z,17.34
2023-08-07T12:27:15.181Z,17.58
2023-08-07T12:29:45.305Z,17.68
2023-08-07T12:32:15.422Z,17.63
2023-08-07T12:37:19.128Z,17.58
2023-08-07T12:42:25.616Z,17.66
2023-08-07T12:44:55.994Z,17.71
2023-08-07T12:47:26.340Z,17.80
2023-08-07T12:49:54.523Z,17.82
2023-08-07T12:52:23.016Z,17.89
2023-08-07T12:54:51.399Z,17.94
2023-08-07T12:57:19.786Z,17.88
2023-08-07T12:59:48.233Z,17.84
2023-08-07T13:02:16.633Z,17.56
2023-08-07T13:04:45.255Z,17.40
2023-08-07T13:07:13.828Z,17.25
2023-08-07T13:09:41.957Z,16.99
2023-08-07T13:12:10.442Z,16.69
2023-08-07T13:14:39.525Z,16.49
2023-08-07T13:17:07.231Z,16.49
2023-08-07T13:19:35.978Z,16.68
2023-08-07T13:22:04.161Z,16.71
2023-08-07T13:24:32.870Z,16.63
2023-08-07T13:27:00.736Z,16.56
2023-08-07T13:29:30.971Z,16.39
2023-08-07T13:32:00.713Z,16.28
2023-08-07T13:34:29.015Z,16.33
2023-08-07T13:36:57.451Z,16.41
2023-08-07T13:39:25.804Z,16.56
2023-08-07T13:41:54.687Z,16.69
2023-08-07T13:44:23.677Z,16.71
2023-08-07T13:46:53.867Z,16.65
2023-08-07T13:49:24.814Z,16.61
2023-08-07T13:51:55.203Z,16.67
2023-08-07T13:54:25.782Z,16.74
2023-08-07T13:56:54.221Z,16.84
2023-08-07T13:59:22.621Z,16.86
2023-08-07T14:01:51.307Z,16.85
2023-08-07T14:04:19.513Z,16.81
2023-08-07T14:06:48.112Z,16.80
2023-08-07T14:09:16.221Z,16.76
2023-08-07T14:11:44.535Z,16.78
2023-08-07T14:14:13.011Z,16.77
2023-08-07T14:16:41.452Z,16.84
2023-08-07T14:19:10.307Z,16.91
2023-08-07T14:21:38.248Z,16.85
2023-08-07T14:24:07.750Z,16.84
2023-08-07T14:26:35.343Z,16.84
2023-08-07T14:29:03.524Z,16.79
2023-08-07T14:31:31.932Z,16.64
2023-08-07T14:34:00.304Z,16.54
2023-08-07T14:36:28.662Z,16.45
2023-08-07T14:38:57.135Z,16.46
2023-08-07T14:41:25.521Z,16.54
2023-08-07T14:43:53.931Z,16.48
2023-08-07T14:46:23.297Z,16.52
2023-08-07T14:48:50.921Z,16.72
2023-08-07T14:51:19.229Z,16.94
2023-08-07T14:53:47.562Z,17.57
2023-08-07T14:56:16.014Z,18.20
2023-08-07T14:58:44.390Z,18.63
2023-08-07T15:01:12.741Z,18.87
2023-08-07T15:03:41.189Z,18.78
2023-08-07T15:06:09.616Z,18.60
2023-08-07T15:08:37.960Z,18.32
2023-08-07T15:11:06.478Z,18.31
2023-08-07T15:13:37.839Z,18.07
2023-08-07T15:16:06.293Z,17.89
2023-08-07T15:18:34.894Z,17.83
2023-08-07T15:21:05.280Z,17.78
2023-08-07T15:23:35.542Z,17.77
2023-08-07T15:26:05.907Z,17.55
2023-08-07T15:28:36.174Z,17.47
2023-08-07T15:31:06.709Z,17.28
2023-08-07T15:33:36.859Z,17.12
2023-08-07T15:36:07.201Z,16.99
2023-08-07T15:38:39.663Z,16.83
2023-08-07T15:41:12.538Z,16.77
2023-08-07T15:43:42.805Z,16.87
2023-08-07T15:46:13.024Z,17.00
2023-08-07T15:48:44.028Z,16.99
2023-08-07T15:51:14.489Z,17.21
2023-08-07T15:53:44.684Z,17.80
2023-08-07T15:56:14.859Z,18.24
2023-08-07T15:58:44.990Z,18.43
2023-08-07T16:01:13.765Z,18.19
2023-08-07T16:03:41.923Z,17.89
2023-08-07T16:06:10.323Z,17.70
2023-08-07T16:08:38.962Z,17.58
2023-08-07T16:11:07.275Z,17.45
2023-08-07T16:13:36.467Z,17.24
2023-08-07T16:16:06.691Z,17.18
2023-08-07T16:18:37.897Z,17.21
2023-08-07T16:21:08.374Z,17.19
2023-08-07T16:23:38.647Z,17.25
2023-08-07T16:26:08.807Z,17.32
2023-08-07T16:28:39.026Z,17.19
2023-08-07T16:31:09.290Z,17.05
2023-08-07T16:33:40.284Z,16.98
2023-08-07T16:36:10.510Z,16.98
2023-08-07T16:38:40.701Z,16.84
2023-08-07T16:41:13.440Z,16.74
2023-08-07T16:43:44.280Z,16.59
2023-08-07T16:46:14.569Z,16.44
2023-08-07T16:48:42.888Z,16.39
2023-08-07T16:51:15.731Z,16.42
2023-08-07T16:53:49.539Z,16.46
2023-08-07T16:56:19.836Z,16.56
2023-08-07T16:58:51.646Z,16.60
2023-08-07T17:01:22.984Z,16.61
2023-08-07T17:03:53.217Z,16.60
2023-08-07T17:06:23.374Z,16.59
2023-08-07T17:08:53.586Z,16.51
2023-08-07T17:11:24.697Z,16.42
2023-08-07T17:13:58.191Z,16.31
2023-08-07T17:16:29.497Z,16.23
2023-08-07T17:19:00.931Z,16.22
2023-08-07T17:21:31.052Z,16.23
2023-08-07T17:24:01.172Z,16.18
2023-08-07T17:26:31.544Z,16.17
2023-08-07T17:29:01.877Z,16.18
2023-08-07T17:31:32.097Z,16.11
2023-08-07T17:34:02.323Z,16.02
2023-08-07T17:36:32.671Z,15.87
2023-08-07T17:39:02.955Z,15.75
2023-08-07T17:41:33.115Z,15.68
2023-08-07T17:44:03.294Z,15.61
2023-08-07T17:46:33.892Z,15.58
2023-08-07T17:49:04.146Z,15.62
2023-08-07T17:51:34.434Z,15.62
2023-08-07T17:54:04.709Z,15.60
2023-08-07T17:56:37.173Z,15.50
2023-08-07T17:59:07.144Z,15.40
2023-08-07T18:01:34.761Z,15.33
2023-08-07T18:04:03.307Z,15.25
2023-08-07T18:06:31.754Z,15.10
2023-08-07T18:09:00.072Z,14.96
2023-08-07T18:11:28.432Z,14.95
2023-08-07T18:13:56.999Z,14.89
2023-08-07T18:16:26.556Z,14.80
2023-08-07T18:18:57.096Z,14.86
2023-08-07T18:21:27.332Z,14.84
2023-08-07T18:23:57.726Z,14.78
2023-08-07T18:26:27.965Z,14.74
2023-08-07T18:28:56.733Z,14.71
2023-08-07T18:31:26.514Z,14.68
2023-08-07T18:33:56.090Z,14.61
2023-08-07T18:36:24.713Z,14.62
2023-08-07T18:38:52.954Z,14.57
2023-08-07T18:41:21.613Z,14.57
2023-08-07T18:43:50.216Z,14.56
2023-08-07T18:46:18.210Z,14.57
2023-08-07T18:48:47.116Z,14.55
2023-08-07T18:51:15.081Z,14.51
2023-08-07T18:53:43.797Z,14.49
2023-08-07T18:56:11.846Z,14.51
2023-08-07T18:58:40.200Z,14.46
2023-08-07T19:01:08.597Z,14.45
2023-08-07T19:03:37.139Z,14.41
2023-08-07T19:06:06.735Z,14.34
2023-08-07T19:08:40.209Z,14.33
2023-08-07T19:11:10.498Z,14.25
2023-08-07T19:13:40.676Z,14.20
2023-08-07T19:16:11.062Z,14.27
2023-08-07T19:18:41.261Z,14.28
2023-08-07T19:21:11.381Z,14.28
2023-08-07T19:23:41.506Z,14.29
2023-08-07T19:26:11.890Z,14.31
2023-08-07T19:28:42.074Z,14.30
2023-08-07T19:31:12.247Z,14.31
2023-08-07T19:33:42.592Z,14.28
2023-08-07T19:36:13.077Z,14.21
2023-08-07T19:38:43.276Z,14.12
2023-08-07T19:41:14.233Z,14.03
2023-08-07T19:43:45.317Z,13.96
2023-08-07T19:46:16.300Z,13.95
2023-08-07T19:48:43.925Z,13.90
2023-08-07T19:51:16.423Z,13.86
2023-08-07T19:53:59.786Z,13.84
2023-08-07T19:56:34.377Z,13.80
2023-08-07T19:59:06.884Z,13.78
2023-08-07T20:01:35.288Z,13.74
2023-08-07T20:04:04.687Z,13.69
2023-08-07T20:06:32.182Z,13.61
2023-08-07T20:09:00.488Z,13.57
2023-08-07T20:11:35.439Z,13.50
2023-08-07T20:14:06.366Z,13.48
2023-08-07T20:16:36.856Z,13.46
2023-08-07T20:19:07.228Z,13.43
2023-08-07T20:21:37.596Z,13.37
2023-08-07T20:24:07.917Z,13.34
2023-08-07T20:26:38.105Z,13.30
2023-08-07T20:29:08.249Z,13.32
2023-08-07T20:31:38.392Z,13.41
2023-08-07T20:34:08.764Z,13.40
2023-08-07T20:36:38.927Z,13.41
2023-08-07T20:39:14.132Z,13.35
2023-08-07T20:41:45.691Z,13.26
2023-08-07T20:44:15.891Z,13.20
2023-08-07T20:46:46.145Z,13.20
2023-08-07T20:49:16.287Z,13.16
2023-08-07T20:51:46.509Z,13.15
2023-08-07T20:54:16.635Z,13.12
2023-08-07T20:56:47.973Z,13.10
2023-08-07T20:59:18.141Z,13.10
2023-08-07T21:01:48.317Z,13.13
2023-08-07T21:04:18.675Z,13.11
2023-08-07T21:06:51.780Z,13.12
2023-08-07T21:09:22.255Z,13.00
2023-08-07T21:11:53.728Z,12.93
2023-08-07T21:14:23.768Z,12.95
2023-08-07T21:16:52.320Z,12.88
2023-08-07T21:19:20.634Z,12.92
2023-08-07T21:21:49.134Z,12.94
2023-08-07T21:24:17.499Z,12.93
2023-08-07T21:26:45.858Z,13.00
2023-08-07T21:29:14.248Z,12.98
2023-08-07T21:31:42.821Z,13.00
2023-08-07T21:34:11.078Z,13.01
2023-08-07T21:36:39.472Z,12.98
2023-08-07T21:39:08.039Z,12.94
2023-08-07T21:41:36.411Z,12.89
2023-08-07T21:44:05.066Z,12.85
2023-08-07T21:46:33.233Z,12.79
2023-08-07T21:49:02.193Z,12.73
2023-08-07T21:51:30.079Z,12.73
2023-08-07T21:53:58.367Z,12.76
2023-08-07T21:56:26.873Z,12.74
2023-08-07T21:58:55.493Z,12.71
2023-08-07T22:01:23.812Z,12.68
2023-08-07T22:03:52.200Z,12.69
2023-08-07T22:06:20.581Z,12.63
2023-08-07T22:08:48.841Z,12.63
2023-08-07T22:11:17.403Z,12.74
2023-08-07T22:13:46.438Z,12.68
2023-08-07T22:16:14.468Z,12.61
2023-08-07T22:18:42.611Z,12.61
2023-08-07T22:21:10.957Z,12.55
2023-08-07T22:23:39.535Z,12.54
2023-08-07T22:26:07.844Z,12.55
2023-08-07T22:28:37.601Z,12.51
2023-08-07T22:31:07.704Z,12.48
2023-08-07T22:33:38.103Z,12.41
2023-08-07T22:36:12.745Z,12.39
2023-08-07T22:38:43.377Z,12.34
2023-08-07T22:41:13.782Z,12.31
2023-08-07T22:43:43.991Z,12.25
2023-08-07T22:46:14.244Z,12.21
2023-08-07T22:48:44.443Z,12.17
2023-08-07T22:51:14.604Z,12.13
2023-08-07T22:53:44.806Z,12.10
2023-08-07T22:56:14.996Z,12.09
2023-08-07T22:58:45.102Z,12.10
2023-08-07T23:01:15.355Z,12.05
2023-08-07T23:03:45.471Z,12.00
2023-08-07T23:06:15.646Z,12.01
2023-08-07T23:08:45.853Z,11.90
2023-08-07T23:11:16.050Z,11.88
2023-08-07T23:13:46.187Z,11.89
2023-08-07T23:16:16.423Z,11.89
2023-08-07T23:18:46.635Z,11.83
2023-08-07T23:21:17.306Z,11.91
2023-08-07T23:23:47.525Z,11.95
2023-08-07T23:26:16.008Z,11.98
2023-08-07T23:28:44.321Z,12.00
2023-08-07T23:31:12.805Z,12.06
2023-08-07T23:33:42.581Z,12.09
2023-08-07T23:36:12.617Z,12.10
2023-08-07T23:38:41.026Z,12.06
2023-08-07T23:41:09.486Z,12.01
2023-08-07T23:43:37.939Z,11.95
2023-08-07T23:46:06.411Z,11.88
2023-08-07T23:48:35.780Z,11.82
2023-08-07T23:51:03.320Z,11.79
2023-08-07T23:53:31.845Z,11.80
2023-08-07T23:56:00.259Z,11.73
2023-08-07T23:58:28.548Z,11.71
